Oldbury, United Kingdom
Current Conditions -  °F | °C
As of 12:20 AM on Saturday 22 Nov 2014 (Local Time) from EGBB Reporting Station
Haze Haze  
Wind Chill: 41°   Ceiling: 200
Heat Index: 46°   Visibility: 1mi
Dew Point: 45°   Wind: 10mph
Humidity: 93%   Direction: 130°SE
Pressure: 29.83"   Gusts: NA
Location:  52.5°N, 2.02°W
Report Text: EGBB 220020Z AUTO 13009KT 1600 BR OVC002/// 08/07 Q1010
Loading
Personal Weather Stations






























Interactive Weather Map New forecast layout! Learn more

10-Day Weather Forecast

Advertisements
Track Severe Weather on mobile